Time,TemperatureF,DewpointF,PressureIn,WindDirection,WindDirectionDegrees,WindSpeedMPH,WindSpeedGustMPH,Humidity,HourlyPrecipIn,Conditions,Clouds,dailyrainin,SolarRadiationWatts/m^2,SoftwareType,DateUTC
2013-02-06 00:01:00,48.8,43.5,30.14,NW,310,0.0,0.0,82,0.00,OVC,,0.00,0.0,WeatherDisplay:10.37,2013-02-06 08:01:00,
2013-02-06 00:06:00,48.6,43.4,30.14,NW,309,0.0,0.0,82,0.00,OVC,,0.00,0.0,WeatherDisplay:10.37,2013-02-06 08:06:00,
2013-02-06 00:11:00,48.3,43.1,30.14,NW,309,0.0,0.0,82,0.00,OVC,,0.00,0.0,WeatherDisplay:10.37,2013-02-06 08:11:00,
2013-02-06 00:16:00,48.0,43.1,30.14,NW,309,0.0,0.0,83,0.00,OVC,,0.00,0.0,WeatherDisplay:10.37,2013-02-06 08:16:00,
2013-02-06 00:21:00,47.8,42.9,30.14,NW,310,0.0,0.0,83,0.00,OVC,,0.00,0.0,WeatherDisplay:10.37,2013-02-06 08:21:00,
2013-02-06 00:26:00,47.6,43.0,30.14,NW,310,0.0,0.0,84,0.00,OVC,,0.00,0.0,WeatherDisplay:10.37,2013-02-06 08:26:00,
2013-02-06 00:31:00,47.3,42.7,30.13,NW,310,0.0,0.0,84,0.00,OVC,,0.00,0.0,WeatherDisplay:10.37,2013-02-06 08:31:00,
2013-02-06 00:36:00,47.1,42.5,30.14,NW,310,0.0,0.0,84,0.00,OVC,,0.00,0.0,WeatherDisplay:10.37,2013-02-06 08:36:00,
2013-02-06 00:41:00,46.9,42.6,30.14,NW,309,0.0,0.0,85,0.00,OVC,,0.00,0.0,WeatherDisplay:10.37,2013-02-06 08:41:00,
2013-02-06 00:46:00,46.8,42.5,30.13,NW,310,1.7,3.0,85,0.00,OVC,,0.00,0.0,WeatherDisplay:10.37,2013-02-06 08:46:00,
2013-02-06 00:51:00,46.6,42.6,30.13,NW,309,0.2,2.0,86,0.00,OVC,,0.00,0.0,WeatherDisplay:10.37,2013-02-06 08:51:00,
2013-02-06 00:56:00,46.5,42.5,30.13,NW,309,0.0,0.0,86,0.00,OVC,,0.00,0.0,WeatherDisplay:10.37,2013-02-06 08:56:00,
2013-02-06 01:01:00,46.4,42.4,30.13,NW,309,0.5,1.0,86,0.00,OVC,,0.00,0.0,WeatherDisplay:10.37,2013-02-06 09:01:00,
2013-02-06 01:06:00,46.3,42.3,30.13,NW,309,0.0,0.0,86,0.00,OVC,,0.00,0.0,WeatherDisplay:10.37,2013-02-06 09:06:00,
2013-02-06 01:11:00,46.3,42.0,30.13,NW,309,1.2,2.3,85,0.00,OVC,,0.00,0.0,WeatherDisplay:10.37,2013-02-06 09:11:00,
2013-02-06 01:16:00,46.1,41.8,30.13,NW,309,0.0,0.0,85,0.00,OVC,,0.00,0.0,WeatherDisplay:10.37,2013-02-06 09:16:00,
2013-02-06 01:21:00,46.0,42.0,30.12,NW,309,0.0,0.0,86,0.00,OVC,,0.00,0.0,WeatherDisplay:10.37,2013-02-06 09:21:00,
2013-02-06 01:26:00,46.0,42.0,30.12,NW,309,0.0,0.0,86,0.00,OVC,,0.00,0.0,WeatherDisplay:10.37,2013-02-06 09:26:00,
2013-02-06 01:31:00,46.0,42.0,30.13,NW,309,0.0,0.0,86,0.00,OVC,,0.00,0.0,WeatherDisplay:10.37,2013-02-06 09:31:00,
2013-02-06 01:36:00,46.1,42.1,30.13,NW,309,0.7,2.3,86,0.00,OVC,,0.00,0.0,WeatherDisplay:10.37,2013-02-06 09:36:00,
2013-02-06 01:41:00,46.3,42.0,30.14,NW,309,1.2,3.5,85,0.00,OVC,,0.00,0.0,WeatherDisplay:10.37,2013-02-06 09:41:00,
2013-02-06 01:46:00,46.5,41.9,30.14,NW,311,1.3,3.5,84,0.00,OVC,,0.00,0.0,WeatherDisplay:10.37,2013-02-06 09:46:00,
2013-02-06 01:51:00,46.8,42.2,30.13,NW,310,1.0,2.3,84,0.00,OVC,,0.00,0.0,WeatherDisplay:10.37,2013-02-06 09:51:00,
2013-02-06 01:56:00,47.0,42.1,30.13,NW,311,1.3,3.5,83,0.00,OVC,,0.00,0.0,WeatherDisplay:10.37,2013-02-06 09:56:00,
2013-02-06 02:01:00,47.1,42.2,30.13,NW,311,0.9,2.3,83,0.00,OVC,,0.00,0.0,WeatherDisplay:10.37,2013-02-06 10:01:00,
2013-02-06 02:06:00,47.1,41.9,30.13,NW,311,0.0,0.0,82,0.00,OVC,,0.00,0.0,WeatherDisplay:10.37,2013-02-06 10:06:00,
2013-02-06 02:11:00,46.9,41.7,30.13,NW,311,0.0,0.0,82,0.00,OVC,,0.00,0.0,WeatherDisplay:10.37,2013-02-06 10:11:00,
2013-02-06 02:16:00,46.7,41.5,30.13,NW,310,1.2,1.2,82,0.00,OVC,,0.00,0.0,WeatherDisplay:10.37,2013-02-06 10:16:00,
2013-02-06 02:21:00,46.3,41.4,30.13,NW,310,0.0,1.1,83,0.00,OVC,,0.00,0.0,WeatherDisplay:10.37,2013-02-06 10:21:00,
2013-02-06 02:26:00,46.1,41.2,30.13,NW,310,0.0,0.0,83,0.00,OVC,,0.00,0.0,WeatherDisplay:10.37,2013-02-06 10:26:00,
2013-02-06 02:31:00,45.9,41.3,30.13,NW,310,0.8,1.0,84,0.00,OVC,,0.00,0.0,WeatherDisplay:10.37,2013-02-06 10:31:00,
2013-02-06 02:36:00,46.0,41.7,30.13,NW,310,0.0,0.0,85,0.00,OVC,,0.00,0.0,WeatherDisplay:10.37,2013-02-06 10:36:00,
2013-02-06 02:42:00,46.0,41.4,30.13,NW,310,1.3,2.3,84,0.00,OVC,,0.00,0.0,WeatherDisplay:10.37,2013-02-06 10:42:00,
2013-02-06 02:47:00,45.8,41.2,30.12,NW,310,0.8,2.3,84,0.00,OVC,,0.00,0.0,WeatherDisplay:10.37,2013-02-06 10:47:00,
2013-02-06 02:52:00,45.6,41.0,30.12,NW,310,1.6,3.5,84,0.00,OVC,,0.00,0.0,WeatherDisplay:10.37,2013-02-06 10:52:00,
2013-02-06 02:57:00,45.5,40.9,30.12,NW,308,0.1,1.1,84,0.00,OVC,,0.00,0.0,WeatherDisplay:10.37,2013-02-06 10:57:00,
2013-02-06 03:02:00,45.3,40.7,30.12,NW,308,0.0,0.0,84,0.00,OVC,,0.00,0.0,WeatherDisplay:10.37,2013-02-06 11:02:00,
2013-02-06 03:07:00,45.1,40.9,30.12,NW,308,0.0,0.0,85,0.00,OVC,,0.00,0.0,WeatherDisplay:10.37,2013-02-06 11:07:00,
2013-02-06 03:12:00,44.9,40.7,30.13,NW,308,0.0,0.0,85,0.00,OVC,,0.00,0.0,WeatherDisplay:10.37,2013-02-06 11:12:00,
2013-02-06 03:17:00,44.8,40.6,30.13,NW,308,0.0,0.0,85,0.00,OVC,,0.00,0.0,WeatherDisplay:10.37,2013-02-06 11:17:00,
2013-02-06 03:22:00,44.7,40.8,30.13,NW,308,0.0,0.0,86,0.00,OVC,,0.00,0.0,WeatherDisplay:10.37,2013-02-06 11:22:00,
2013-02-06 03:27:00,44.6,40.7,30.14,NW,308,0.0,0.0,86,0.00,OVC,,0.00,0.0,WeatherDisplay:10.37,2013-02-06 11:27:00,
2013-02-06 03:32:00,44.5,40.6,30.13,NW,308,0.0,0.0,86,0.00,OVC,,0.00,0.0,WeatherDisplay:10.37,2013-02-06 11:32:00,
2013-02-06 03:37:00,44.5,40.6,30.13,NW,308,0.0,0.0,86,0.00,OVC,,0.00,0.0,WeatherDisplay:10.37,2013-02-06 11:37:00,
2013-02-06 03:42:00,44.3,40.4,30.13,NW,308,0.0,0.0,86,0.00,OVC,,0.00,0.0,WeatherDisplay:10.37,2013-02-06 11:42:00,
2013-02-06 03:47:00,44.2,40.3,30.13,NW,308,0.0,0.0,86,0.00,OVC,,0.00,0.0,WeatherDisplay:10.37,2013-02-06 11:47:00,
2013-02-06 03:52:00,44.0,40.1,30.13,NW,308,0.0,0.0,86,0.00,OVC,,0.00,0.0,WeatherDisplay:10.37,2013-02-06 11:52:00,
2013-02-06 03:57:00,43.8,39.9,30.13,NW,308,0.0,0.0,86,0.00,OVC,,0.00,0.0,WeatherDisplay:10.37,2013-02-06 11:57:00,
2013-02-06 04:02:00,43.7,39.8,30.13,NW,308,0.0,0.0,86,0.00,OVC,,0.00,0.0,WeatherDisplay:10.37,2013-02-06 12:02:00,
2013-02-06 04:07:00,43.6,40.0,30.13,NW,308,1.2,2.3,87,0.00,OVC,,0.00,0.0,WeatherDisplay:10.37,2013-02-06 12:07:00,
2013-02-06 04:12:00,43.6,40.0,30.13,NW,308,0.0,0.0,87,0.00,OVC,,0.00,0.0,WeatherDisplay:10.37,2013-02-06 12:12:00,
2013-02-06 04:17:00,43.5,40.2,30.13,NW,308,0.0,0.0,88,0.00,OVC,,0.00,0.0,WeatherDisplay:10.37,2013-02-06 12:17:00,
2013-02-06 04:23:00,43.5,40.2,30.13,NW,308,0.0,0.0,88,0.00,OVC,,0.00,0.0,WeatherDisplay:10.37,2013-02-06 12:23:00,
2013-02-06 04:28:00,43.4,40.1,30.13,NW,308,0.0,0.0,88,0.00,OVC,,0.00,0.0,WeatherDisplay:10.37,2013-02-06 12:28:00,
2013-02-06 04:33:00,43.4,40.1,30.14,NW,308,0.0,0.0,88,0.00,OVC,,0.00,0.0,WeatherDisplay:10.37,2013-02-06 12:33:00,
2013-02-06 04:38:00,43.3,40.0,30.14,NW,308,0.0,0.0,88,0.00,OVC,,0.00,0.0,WeatherDisplay:10.37,2013-02-06 12:38:00,
2013-02-06 04:43:00,43.2,39.9,30.14,NW,308,0.0,0.0,88,0.00,OVC,,0.00,0.0,WeatherDisplay:10.37,2013-02-06 12:43:00,
2013-02-06 04:48:00,43.1,39.8,30.14,NW,308,0.0,0.0,88,0.00,OVC,,0.00,0.0,WeatherDisplay:10.37,2013-02-06 12:48:00,
2013-02-06 04:53:00,43.1,39.8,30.14,NW,308,0.0,0.0,88,0.00,OVC,,0.00,0.0,WeatherDisplay:10.37,2013-02-06 12:53:00,
2013-02-06 04:58:00,43.0,39.7,30.14,NW,308,0.0,1.1,88,0.00,OVC,,0.00,0.0,WeatherDisplay:10.37,2013-02-06 12:58:00,
2013-02-06 05:03:00,42.9,39.6,30.14,NW,308,0.0,0.0,88,0.00,OVC,,0.00,0.0,WeatherDisplay:10.37,2013-02-06 13:03:00,
2013-02-06 05:08:00,42.9,39.9,30.14,NW,308,0.0,0.0,89,0.00,OVC,,0.00,0.0,WeatherDisplay:10.37,2013-02-06 13:08:00,
2013-02-06 05:13:00,42.8,39.8,30.14,NW,308,0.0,0.0,89,0.00,OVC,,0.00,0.0,WeatherDisplay:10.37,2013-02-06 13:13:00,
2013-02-06 05:18:00,42.7,39.4,30.14,NW,308,0.0,0.0,88,0.00,OVC,,0.00,0.0,WeatherDisplay:10.37,2013-02-06 13:18:00,
2013-02-06 05:23:00,42.6,39.6,30.14,NW,308,0.0,0.0,89,0.00,OVC,,0.00,0.0,WeatherDisplay:10.37,2013-02-06 13:23:00,
2013-02-06 05:28:00,42.7,39.7,30.14,NW,308,0.4,2.3,89,0.00,OVC,,0.00,0.0,WeatherDisplay:10.37,2013-02-06 13:28:00,
2013-02-06 05:33:00,42.7,39.7,30.14,NW,308,0.0,0.0,89,0.00,OVC,,0.00,0.0,WeatherDisplay:10.37,2013-02-06 13:33:00,
2013-02-06 05:38:00,42.7,39.7,30.14,NW,308,0.0,0.0,89,0.00,OVC,,0.00,0.0,WeatherDisplay:10.37,2013-02-06 13:38:00,
2013-02-06 05:43:00,42.7,39.7,30.14,NW,308,0.0,0.0,89,0.00,OVC,,0.00,0.0,WeatherDisplay:10.37,2013-02-06 13:43:00,
2013-02-06 05:48:00,42.6,39.6,30.14,NW,308,0.0,0.0,89,0.00,OVC,,0.00,0.0,WeatherDisplay:10.37,2013-02-06 13:48:00,
2013-02-06 05:53:00,42.5,39.5,30.14,NW,308,0.0,0.0,89,0.00,OVC,,0.00,0.0,WeatherDisplay:10.37,2013-02-06 13:53:00,
2013-02-06 05:58:00,42.5,39.5,30.14,NW,308,0.0,0.0,89,0.00,OVC,,0.00,0.0,WeatherDisplay:10.37,2013-02-06 13:58:00,
2013-02-06 06:03:00,42.5,39.5,30.14,NW,308,0.0,0.0,89,0.00,OVC,,0.00,0.0,WeatherDisplay:10.37,2013-02-06 14:03:00,
2013-02-06 06:08:00,42.5,39.8,30.15,NW,308,0.0,0.0,90,0.00,OVC,,0.00,0.0,WeatherDisplay:10.37,2013-02-06 14:08:00,
2013-02-06 06:13:00,42.6,39.6,30.15,NW,308,0.0,0.0,89,0.00,OVC,,0.00,0.0,WeatherDisplay:10.37,2013-02-06 14:13:00,
2013-02-06 06:18:00,42.5,39.5,30.15,NW,308,0.0,0.0,89,0.00,OVC,,0.00,0.0,WeatherDisplay:10.37,2013-02-06 14:18:00,
2013-02-06 06:23:00,42.5,39.5,30.15,NW,308,0.0,0.0,89,0.00,OVC,,0.00,0.0,WeatherDisplay:10.37,2013-02-06 14:23:00,
2013-02-06 06:28:00,42.5,39.8,30.15,NW,308,0.0,0.0,90,0.00,OVC,,0.00,0.0,WeatherDisplay:10.37,2013-02-06 14:28:00,
2013-02-06 06:33:00,42.4,39.7,30.15,NW,308,0.0,0.0,90,0.00,OVC,,0.00,0.0,WeatherDisplay:10.37,2013-02-06 14:33:00,
2013-02-06 06:38:00,42.3,39.6,30.15,NW,308,0.0,0.0,90,0.00,OVC,,0.00,0.0,WeatherDisplay:10.37,2013-02-06 14:38:00,
2013-02-06 06:43:00,42.4,39.7,30.15,NW,308,0.0,0.0,90,0.00,OVC,,0.00,0.0,WeatherDisplay:10.37,2013-02-06 14:43:00,
2013-02-06 06:48:00,42.4,39.7,30.15,NW,308,0.0,0.0,90,0.00,OVC,,0.00,0.0,WeatherDisplay:10.37,2013-02-06 14:48:00,
2013-02-06 06:53:00,42.4,39.7,30.15,NW,308,0.0,0.0,90,0.00,OVC,,0.00,0.0,WeatherDisplay:10.37,2013-02-06 14:53:00,
2013-02-06 06:58:00,42.4,39.7,30.15,NW,308,0.0,0.0,90,0.00,OVC,,0.00,0.0,WeatherDisplay:10.37,2013-02-06 14:58:00,
2013-02-06 07:03:00,42.3,39.6,30.15,NW,308,0.0,0.0,90,0.00,OVC,,0.00,0.0,WeatherDisplay:10.37,2013-02-06 15:03:00,
2013-02-06 07:11:00,42.3,39.9,30.15,NW,308,0.0,0.0,91,0.00,OVC,,0.00,5.0,WeatherDisplay:10.37,2013-02-06 15:11:00,
2013-02-06 07:16:00,42.3,39.9,30.15,NW,308,0.0,0.0,91,0.00,OVC,,0.00,9.0,WeatherDisplay:10.37,2013-02-06 15:16:00,
2013-02-06 07:21:00,42.4,40.0,30.15,NW,308,0.0,0.0,91,0.00,OVC,,0.00,16.0,WeatherDisplay:10.37,2013-02-06 15:21:00,
2013-02-06 07:26:00,42.4,40.0,30.16,NW,308,0.0,0.0,91,0.00,OVC,,0.00,26.0,WeatherDisplay:10.37,2013-02-06 15:26:00,
2013-02-06 07:31:00,42.5,40.1,30.16,NW,308,0.0,0.0,91,0.00,OVC,,0.00,35.0,WeatherDisplay:10.37,2013-02-06 15:31:00,
2013-02-06 07:36:00,42.9,40.7,30.17,NW,308,0.0,0.0,92,0.00,OVC,,0.00,47.0,WeatherDisplay:10.37,2013-02-06 15:36:00,
2013-02-06 07:41:00,43.5,41.9,30.16,NW,308,0.0,0.0,94,0.00,OVC,,0.00,62.0,WeatherDisplay:10.37,2013-02-06 15:41:00,
2013-02-06 07:46:00,44.1,42.2,30.16,NW,308,0.6,2.3,93,0.00,OVC,,0.00,74.0,WeatherDisplay:10.37,2013-02-06 15:46:00,
2013-02-06 07:51:00,44.9,43.3,30.16,NW,308,0.3,0.0,94,0.00,OVC,,0.00,88.0,WeatherDisplay:10.37,2013-02-06 15:51:00,
2013-02-06 07:56:00,45.9,44.5,30.16,NW,308,0.0,0.0,95,0.00,,,0.00,102.0,WeatherDisplay:10.37,2013-02-06 15:56:00,
2013-02-06 08:01:00,46.7,45.1,30.17,NW,308,0.0,0.0,94,0.00,CLR,,0.00,114.0,WeatherDisplay:10.37,2013-02-06 16:01:00,
2013-02-06 08:06:00,47.3,45.4,30.16,NW,308,0.0,0.0,93,0.00,CLR,,0.00,127.0,WeatherDisplay:10.37,2013-02-06 16:06:00,
2013-02-06 08:11:00,48.5,46.6,30.17,NW,308,0.0,0.0,93,0.00,CLR,,0.00,142.0,WeatherDisplay:10.37,2013-02-06 16:11:00,
2013-02-06 08:16:00,49.6,47.4,30.17,NW,308,0.0,0.0,92,0.00,CLR,,0.00,155.0,WeatherDisplay:10.37,2013-02-06 16:16:00,
2013-02-06 08:21:00,50.1,46.7,30.17,NW,308,0.0,0.0,88,0.00,CLR,,0.00,167.0,WeatherDisplay:10.37,2013-02-06 16:21:00,
2013-02-06 08:26:00,50.3,46.6,30.17,NW,308,0.0,0.0,87,0.00,CLR,,0.00,183.0,WeatherDisplay:10.37,2013-02-06 16:26:00,
2013-02-06 08:31:00,50.5,46.2,30.17,NW,308,0.0,0.0,85,0.00,CLR,,0.00,199.0,WeatherDisplay:10.37,2013-02-06 16:31:00,
2013-02-06 08:36:00,50.8,46.1,30.17,NW,308,0.0,1.1,84,0.00,CLR,,0.00,214.0,WeatherDisplay:10.37,2013-02-06 16:36:00,
2013-02-06 08:41:00,51.2,46.2,30.17,NW,308,0.0,0.0,83,0.00,CLR,,0.00,230.0,WeatherDisplay:10.37,2013-02-06 16:41:00,
2013-02-06 08:46:00,51.6,46.0,30.17,NW,308,0.3,1.1,81,0.00,CLR,,0.00,248.0,WeatherDisplay:10.37,2013-02-06 16:46:00,
2013-02-06 08:51:00,52.0,46.0,30.17,NW,308,0.2,1.1,80,0.00,CLR,,0.00,262.0,WeatherDisplay:10.37,2013-02-06 16:51:00,
2013-02-06 08:56:00,52.4,45.7,30.17,NW,306,0.3,2.3,78,0.00,CLR,,0.00,274.0,WeatherDisplay:10.37,2013-02-06 16:56:00,
2013-02-06 09:01:00,52.5,45.5,30.18,SW,233,1.2,3.5,77,0.00,CLR,,0.00,283.0,WeatherDisplay:10.37,2013-02-06 17:01:00,
2013-02-06 09:06:00,52.6,45.6,30.18,SSE,152,3.0,4.6,77,0.00,CLR,,0.00,299.0,WeatherDisplay:10.37,2013-02-06 17:06:00,
2013-02-06 09:11:00,52.6,45.6,30.18,SSE,151,1.6,5.8,77,0.00,CLR,,0.00,311.0,WeatherDisplay:10.37,2013-02-06 17:11:00,
2013-02-06 09:16:00,52.5,45.5,30.18,SSE,156,0.8,4.0,77,0.00,CLR,,0.00,327.0,WeatherDisplay:10.37,2013-02-06 17:16:00,
2013-02-06 09:21:00,52.6,45.9,30.18,SE,143,2.6,5.8,78,0.00,CLR,,0.00,338.0,WeatherDisplay:10.37,2013-02-06 17:21:00,
2013-02-06 09:26:00,52.7,46.0,30.18,SE,143,2.9,3.5,78,0.00,CLR,,0.00,352.0,WeatherDisplay:10.37,2013-02-06 17:26:00,
2013-02-06 09:31:00,52.8,45.8,30.18,SE,135,2.3,4.6,77,0.00,CLR,,0.00,364.0,WeatherDisplay:10.37,2013-02-06 17:31:00,
2013-02-06 09:36:00,52.8,45.8,30.18,SE,136,1.3,3.5,77,0.00,CLR,,0.00,373.0,WeatherDisplay:10.37,2013-02-06 17:36:00,
2013-02-06 09:41:00,52.7,45.7,30.18,SE,136,0.6,3.5,77,0.00,CLR,,0.00,385.0,WeatherDisplay:10.37,2013-02-06 17:41:00,
2013-02-06 09:46:00,53.0,46.0,30.18,SE,139,0.9,3.5,77,0.00,CLR,,0.00,394.0,WeatherDisplay:10.37,2013-02-06 17:46:00,
2013-02-06 09:51:00,53.2,45.8,30.18,SE,139,0.6,2.3,76,0.00,CLR,,0.00,406.0,WeatherDisplay:10.37,2013-02-06 17:51:00,
2013-02-06 09:56:00,53.3,45.9,30.18,SSW,208,1.9,3.5,76,0.00,CLR,,0.00,415.0,WeatherDisplay:10.37,2013-02-06 17:56:00,
2013-02-06 10:01:00,53.5,46.1,30.18,SSW,208,1.7,4.0,76,0.00,CLR,,0.00,425.0,WeatherDisplay:10.37,2013-02-06 18:01:00,
2013-02-06 10:06:00,53.8,45.7,30.18,SSW,208,1.3,3.5,74,0.00,CLR,,0.00,438.0,WeatherDisplay:10.37,2013-02-06 18:06:00,
2013-02-06 10:11:00,54.1,45.6,30.18,SSW,210,1.3,3.5,73,0.00,CLR,,0.00,448.0,WeatherDisplay:10.37,2013-02-06 18:11:00,
2013-02-06 10:16:00,54.3,45.8,30.18,SSW,210,0.0,1.1,73,0.00,CLR,,0.00,455.0,WeatherDisplay:10.37,2013-02-06 18:16:00,
2013-02-06 10:21:00,54.7,45.8,30.18,SSW,210,1.1,3.5,72,0.00,CLR,,0.00,464.0,WeatherDisplay:10.37,2013-02-06 18:21:00,
2013-02-06 10:26:00,55.0,46.5,30.18,SSW,210,0.1,3.5,73,0.00,CLR,,0.00,471.0,WeatherDisplay:10.37,2013-02-06 18:26:00,
2013-02-06 10:31:00,55.5,47.3,30.18,SSW,210,0.9,2.3,74,0.00,CLR,,0.00,478.0,WeatherDisplay:10.37,2013-02-06 18:31:00,
2013-02-06 10:36:00,56.2,47.3,30.18,SSW,210,1.0,2.3,72,0.00,CLR,,0.00,485.0,WeatherDisplay:10.37,2013-02-06 18:36:00,
2013-02-06 10:41:00,56.6,47.3,30.18,SSW,210,0.5,1.1,71,0.00,CLR,,0.00,492.0,WeatherDisplay:10.37,2013-02-06 18:41:00,
2013-02-06 10:46:00,56.7,47.0,30.18,SSW,210,1.1,3.5,70,0.00,CLR,,0.00,499.0,WeatherDisplay:10.37,2013-02-06 18:46:00,
2013-02-06 10:51:00,56.8,46.7,30.18,SSW,210,0.4,3.5,69,0.00,CLR,,0.00,506.0,WeatherDisplay:10.37,2013-02-06 18:51:00,
2013-02-06 10:56:00,56.8,47.9,30.18,SSW,210,2.2,3.5,72,0.00,CLR,,0.00,512.0,WeatherDisplay:10.37,2013-02-06 18:56:00,
2013-02-06 11:01:00,56.9,47.2,30.18,SSW,210,3.3,3.5,70,0.00,CLR,,0.00,513.0,WeatherDisplay:10.37,2013-02-06 19:01:00,
2013-02-06 11:06:00,56.8,46.7,30.17,SSW,210,0.0,1.1,69,0.00,CLR,,0.00,519.0,WeatherDisplay:10.37,2013-02-06 19:06:00,
2013-02-06 11:11:00,56.7,46.3,30.17,SSW,210,0.5,1.1,68,0.00,CLR,,0.00,538.0,WeatherDisplay:10.37,2013-02-06 19:11:00,
2013-02-06 11:16:00,56.7,47.0,30.17,SSW,210,0.0,0.0,70,0.00,CLR,,0.00,538.0,WeatherDisplay:10.37,2013-02-06 19:16:00,
2013-02-06 11:21:00,56.3,46.3,30.17,West,279,1.5,3.5,69,0.00,CLR,,0.00,163.0,WeatherDisplay:10.37,2013-02-06 19:21:00,
2013-02-06 11:26:00,55.5,45.5,30.17,WNW,287,4.5,4.6,69,0.00,FEW,,0.00,563.0,WeatherDisplay:10.37,2013-02-06 19:26:00,
2013-02-06 11:31:00,55.3,46.4,30.17,WNW,287,0.0,0.0,72,0.00,SCT,,0.00,431.0,WeatherDisplay:10.37,2013-02-06 19:31:00,
2013-02-06 11:36:00,55.4,46.2,30.17,WNW,287,0.4,1.1,71,0.00,FEW,,0.00,225.0,WeatherDisplay:10.37,2013-02-06 19:36:00,
2013-02-06 11:41:00,55.3,45.7,30.17,WNW,286,1.2,3.5,70,0.00,SCT,,0.00,545.0,WeatherDisplay:10.37,2013-02-06 19:41:00,
2013-02-06 11:46:00,55.5,45.5,30.16,WNW,287,1.3,2.3,69,0.00,SCT,,0.00,545.0,WeatherDisplay:10.37,2013-02-06 19:46:00,
2013-02-06 11:51:00,55.4,44.6,30.16,WNW,287,0.2,0.0,67,0.00,CLR,,0.00,548.0,WeatherDisplay:10.37,2013-02-06 19:51:00,
2013-02-06 11:56:00,55.6,45.6,30.16,WSW,239,1.2,4.0,69,0.00,CLR,,0.00,555.0,WeatherDisplay:10.37,2013-02-06 19:56:00,
2013-02-06 12:01:00,56.0,44.0,30.16,SW,236,0.0,0.0,64,0.00,CLR,,0.00,564.0,WeatherDisplay:10.37,2013-02-06 20:01:00,
2013-02-06 12:06:00,56.4,43.1,30.16,WSW,246,1.1,3.5,61,0.00,CLR,,0.00,563.0,WeatherDisplay:10.37,2013-02-06 20:06:00,
2013-02-06 12:11:00,56.6,42.4,30.16,WSW,254,0.7,3.5,59,0.00,CLR,,0.00,564.0,WeatherDisplay:10.37,2013-02-06 20:11:00,
2013-02-06 12:16:00,56.7,41.6,30.16,West,265,3.1,4.0,57,0.00,CLR,,0.00,564.0,WeatherDisplay:10.37,2013-02-06 20:16:00,
2013-02-06 12:21:00,56.2,41.2,30.15,WNW,283,1.4,4.6,57,0.00,CLR,,0.00,566.0,WeatherDisplay:10.37,2013-02-06 20:21:00,
2013-02-06 12:27:00,55.8,40.8,30.15,NW,321,1.9,4.6,57,0.00,CLR,,0.00,563.0,WeatherDisplay:10.37,2013-02-06 20:27:00,
2013-02-06 12:32:00,56.0,41.9,30.15,WSW,242,5.3,8.1,59,0.00,CLR,,0.00,561.0,WeatherDisplay:10.37,2013-02-06 20:32:00,
2013-02-06 12:37:00,56.5,41.9,30.15,WSW,255,5.0,6.9,58,0.00,CLR,,0.00,559.0,WeatherDisplay:10.37,2013-02-06 20:37:00,
2013-02-06 12:42:00,56.7,41.6,30.15,WSW,237,5.1,5.8,57,0.00,CLR,,0.00,561.0,WeatherDisplay:10.37,2013-02-06 20:42:00,
2013-02-06 12:47:00,56.4,40.9,30.14,WSW,244,4.0,9.2,56,0.00,CLR,,0.00,561.0,WeatherDisplay:10.37,2013-02-06 20:47:00,
2013-02-06 12:52:00,55.7,40.7,30.14,West,271,4.1,9.2,57,0.00,CLR,,0.00,555.0,WeatherDisplay:10.37,2013-02-06 20:52:00,
2013-02-06 12:57:00,55.6,41.5,30.14,West,267,3.8,5.8,59,0.00,CLR,,0.00,555.0,WeatherDisplay:10.37,2013-02-06 20:57:00,
2013-02-06 13:02:00,55.8,42.5,30.14,WNW,286,4.6,6.9,61,0.00,CLR,,0.00,550.0,WeatherDisplay:10.37,2013-02-06 21:02:00,
2013-02-06 13:07:00,55.8,43.4,30.14,WNW,288,4.5,6.0,63,0.00,CLR,,0.00,548.0,WeatherDisplay:10.37,2013-02-06 21:07:00,
2013-02-06 13:12:00,55.5,43.5,30.14,West,260,3.7,10.4,64,0.00,CLR,,0.00,531.0,WeatherDisplay:10.37,2013-02-06 21:12:00,
2013-02-06 13:17:00,55.9,43.9,30.14,WSW,239,5.6,10.4,64,0.00,CLR,,0.00,536.0,WeatherDisplay:10.37,2013-02-06 21:17:00,
2013-02-06 13:22:00,56.5,44.5,30.13,WSW,254,2.5,5.8,64,0.00,CLR,,0.00,526.0,WeatherDisplay:10.37,2013-02-06 21:22:00,
2013-02-06 13:27:00,56.3,44.3,30.13,WNW,288,4.6,6.9,64,0.00,CLR,,0.00,526.0,WeatherDisplay:10.37,2013-02-06 21:27:00,
2013-02-06 13:32:00,56.4,44.8,30.13,SW,215,3.9,7.0,65,0.00,CLR,,0.00,527.0,WeatherDisplay:10.37,2013-02-06 21:32:00,
2013-02-06 13:37:00,57.0,45.3,30.13,West,276,4.2,6.9,65,0.00,CLR,,0.00,519.0,WeatherDisplay:10.37,2013-02-06 21:37:00,
2013-02-06 13:42:00,56.7,45.5,30.12,WSW,256,6.7,11.5,66,0.00,CLR,,0.00,504.0,WeatherDisplay:10.37,2013-02-06 21:42:00,
2013-02-06 13:47:00,56.1,45.7,30.12,West,270,6.0,10.4,68,0.00,CLR,,0.00,496.0,WeatherDisplay:10.37,2013-02-06 21:47:00,
2013-02-06 13:52:00,55.1,45.1,30.12,North,10,7.2,11.5,69,0.00,CLR,,0.00,489.0,WeatherDisplay:10.37,2013-02-06 21:52:00,
2013-02-06 13:57:00,54.9,46.0,30.12,WNW,303,7.6,11.5,72,0.00,CLR,,0.00,485.0,WeatherDisplay:10.37,2013-02-06 21:57:00,
2013-02-06 14:02:00,55.0,45.8,30.12,West,266,8.4,11.5,71,0.00,CLR,,0.00,476.0,WeatherDisplay:10.37,2013-02-06 22:02:00,
2013-02-06 14:07:00,54.8,45.6,30.12,West,275,6.6,11.5,71,0.00,CLR,,0.00,473.0,WeatherDisplay:10.37,2013-02-06 22:07:00,
2013-02-06 14:12:00,54.8,45.9,30.12,WSW,247,9.7,12.7,72,0.00,CLR,,0.00,466.0,WeatherDisplay:10.37,2013-02-06 22:12:00,
2013-02-06 14:17:00,54.9,46.0,30.12,West,266,8.2,12.7,72,0.00,CLR,,0.00,455.0,WeatherDisplay:10.37,2013-02-06 22:17:00,
2013-02-06 14:22:00,55.1,45.9,30.12,WSW,238,7.3,11.5,71,0.00,CLR,,0.00,446.0,WeatherDisplay:10.37,2013-02-06 22:22:00,
2013-02-06 14:27:00,55.4,45.8,30.12,WNW,291,6.6,11.5,70,0.00,CLR,,0.00,438.0,WeatherDisplay:10.37,2013-02-06 22:27:00,
2013-02-06 14:32:00,55.7,46.4,30.12,WSW,248,4.9,11.5,71,0.00,CLR,,0.00,427.0,WeatherDisplay:10.37,2013-02-06 22:32:00,
2013-02-06 14:37:00,56.0,46.4,30.12,WNW,302,4.6,6.9,70,0.00,FEW,,0.00,415.0,WeatherDisplay:10.37,2013-02-06 22:37:00,
2013-02-06 14:42:00,56.0,46.4,30.12,West,264,7.4,11.5,70,0.00,FEW,,0.00,404.0,WeatherDisplay:10.37,2013-02-06 22:42:00,
2013-02-06 14:47:00,55.9,46.6,30.12,WNW,300,3.5,11.5,71,0.00,FEW,,0.00,396.0,WeatherDisplay:10.37,2013-02-06 22:47:00,
2013-02-06 14:52:00,55.8,46.9,30.12,West,265,9.9,15.0,72,0.00,FEW,,0.00,387.0,WeatherDisplay:10.37,2013-02-06 22:52:00,
2013-02-06 14:57:00,55.2,46.7,30.12,WNW,293,5.7,11.0,73,0.00,FEW,,0.00,373.0,WeatherDisplay:10.37,2013-02-06 22:57:00,
2013-02-06 15:02:00,55.2,46.7,30.12,WSW,256,8.0,13.8,73,0.00,FEW,,0.00,362.0,WeatherDisplay:10.37,2013-02-06 23:02:00,
2013-02-06 15:07:00,55.2,46.7,30.11,North,10,5.8,11.0,73,0.00,FEW,,0.00,352.0,WeatherDisplay:10.37,2013-02-06 23:07:00,
2013-02-06 15:12:00,55.3,46.1,30.11,North,10,8.4,16.1,71,0.00,FEW,,0.00,339.0,WeatherDisplay:10.37,2013-02-06 23:12:00,
2013-02-06 15:17:00,55.2,46.0,30.11,West,279,8.7,15.0,71,0.00,FEW,,0.00,327.0,WeatherDisplay:10.37,2013-02-06 23:17:00,
2013-02-06 15:22:00,55.3,46.1,30.11,WSW,256,7.7,12.7,71,0.00,SCT,,0.00,315.0,WeatherDisplay:10.37,2013-02-06 23:22:00,
2013-02-06 15:27:00,55.4,46.2,30.11,WNW,292,9.4,15.0,71,0.00,SCT,,0.00,301.0,WeatherDisplay:10.37,2013-02-06 23:27:00,
2013-02-06 15:32:00,55.2,46.0,30.11,WNW,286,6.6,15.0,71,0.00,SCT,,0.00,287.0,WeatherDisplay:10.37,2013-02-06 23:32:00,
2013-02-06 15:37:00,55.1,46.2,30.11,NW,304,8.5,17.3,72,0.00,SCT,,0.00,274.0,WeatherDisplay:10.37,2013-02-06 23:37:00,
2013-02-06 15:42:00,55.0,46.1,30.11,North,10,11.2,13.8,72,0.00,SCT,,0.00,264.0,WeatherDisplay:10.37,2013-02-06 23:42:00,
2013-02-06 15:47:00,54.8,45.9,30.11,WNW,289,13.0,16.1,72,0.00,SCT,,0.00,251.0,WeatherDisplay:10.37,2013-02-06 23:47:00,
2013-02-06 15:52:00,54.6,45.8,30.11,North,10,9.1,11.5,72,0.00,SCT,,0.00,237.0,WeatherDisplay:10.37,2013-02-06 23:52:00,
2013-02-06 15:57:00,54.8,46.3,30.12,WNW,298,9.9,11.5,73,0.00,SCT,,0.00,225.0,WeatherDisplay:10.37,2013-02-06 23:57:00,
2013-02-06 16:02:00,54.6,46.1,30.11,West,269,12.1,13.8,73,0.00,SCT,,0.00,213.0,WeatherDisplay:10.37,2013-02-07 00:02:00,
2013-02-06 16:07:00,54.0,46.3,30.12,West,267,7.0,13.8,75,0.00,SCT,,0.00,202.0,WeatherDisplay:10.37,2013-02-07 00:07:00,
2013-02-06 16:12:00,53.9,46.2,30.12,WNW,287,9.6,15.0,75,0.00,SCT,,0.00,190.0,WeatherDisplay:10.37,2013-02-07 00:12:00,
2013-02-06 16:17:00,54.0,46.6,30.12,WNW,295,6.2,6.2,76,0.00,SCT,,0.00,179.0,WeatherDisplay:10.37,2013-02-07 00:17:00,
2013-02-06 16:22:00,54.1,46.3,30.12,WNW,294,9.7,12.7,75,0.00,SCT,,0.00,167.0,WeatherDisplay:10.37,2013-02-07 00:22:00,
2013-02-06 16:27:00,53.9,46.5,30.12,WNW,289,3.9,9.2,76,0.00,SCT,,0.00,155.0,WeatherDisplay:10.37,2013-02-07 00:27:00,
2013-02-06 16:32:00,53.9,46.5,30.12,North,10,5.6,11.5,76,0.00,SCT,,0.00,141.0,WeatherDisplay:10.37,2013-02-07 00:32:00,
2013-02-06 16:38:00,53.7,46.0,30.12,West,281,11.3,13.8,75,0.00,SCT,,0.00,125.0,WeatherDisplay:10.37,2013-02-07 00:38:00,
2013-02-06 16:43:00,53.5,46.1,30.12,West,281,8.4,11.5,76,0.00,BKN,,0.00,107.0,WeatherDisplay:10.37,2013-02-07 00:43:00,
2013-02-06 16:48:00,53.3,45.9,30.12,North,10,8.0,10.4,76,0.00,BKN,,0.00,91.0,WeatherDisplay:10.37,2013-02-07 00:48:00,
2013-02-06 16:53:00,53.2,45.8,30.12,WNW,290,7.4,12.7,76,0.00,BKN,,0.00,74.0,WeatherDisplay:10.37,2013-02-07 00:53:00,
2013-02-06 16:58:00,53.1,45.7,30.12,North,10,5.4,10.4,76,0.00,BKN,,0.00,62.0,WeatherDisplay:10.37,2013-02-07 00:58:00,
2013-02-06 17:03:00,52.9,45.5,30.12,WNW,302,5.9,6.9,76,0.00,BKN,,0.00,49.0,WeatherDisplay:10.37,2013-02-07 01:03:00,
2013-02-06 17:08:00,52.8,45.8,30.12,West,276,3.7,5.8,77,0.00,BKN,,0.00,37.0,WeatherDisplay:10.37,2013-02-07 01:08:00,
2013-02-06 17:13:00,52.6,45.6,30.12,WNW,286,3.2,5.8,77,0.00,BKN,,0.00,28.0,WeatherDisplay:10.37,2013-02-07 01:13:00,
2013-02-06 17:18:00,52.6,45.6,30.12,WNW,290,5.0,9.2,77,0.00,BKN,,0.00,19.0,WeatherDisplay:10.37,2013-02-07 01:18:00,
2013-02-06 17:23:00,52.4,45.4,30.12,West,277,4.8,9.2,77,0.00,OVC,,0.00,14.0,WeatherDisplay:10.37,2013-02-07 01:23:00,
2013-02-06 17:28:00,52.1,45.1,30.12,West,270,9.1,12.7,77,0.00,OVC,,0.00,12.0,WeatherDisplay:10.37,2013-02-07 01:28:00,
2013-02-06 17:33:00,51.7,45.1,30.12,West,281,7.1,11.5,78,0.00,OVC,,0.00,9.0,WeatherDisplay:10.37,2013-02-07 01:33:00,
2013-02-06 17:38:00,51.5,45.2,30.12,West,260,9.7,13.8,79,0.00,OVC,,0.00,5.0,WeatherDisplay:10.37,2013-02-07 01:38:00,
2013-02-06 17:43:00,51.3,45.0,30.12,WNW,291,9.1,12.7,79,0.00,OVC,,0.00,0.0,WeatherDisplay:10.37,2013-02-07 01:43:00,
2013-02-06 17:48:00,51.2,45.6,30.12,West,265,8.3,13.0,81,0.00,OVC,,0.00,0.0,WeatherDisplay:10.37,2013-02-07 01:48:00,
2013-02-06 17:53:00,51.0,45.7,30.12,West,279,9.2,12.7,82,0.00,OVC,,0.00,0.0,WeatherDisplay:10.37,2013-02-07 01:53:00,
2013-02-06 17:58:00,50.8,45.5,30.12,WNW,285,6.0,9.2,82,0.00,OVC,,0.00,0.0,WeatherDisplay:10.37,2013-02-07 01:58:00,
2013-02-06 18:03:00,50.7,45.4,30.12,WNW,290,4.9,6.9,82,0.00,OVC,,0.00,0.0,WeatherDisplay:10.37,2013-02-07 02:03:00,
2013-02-06 18:08:00,50.6,45.3,30.12,West,260,8.3,12.7,82,0.00,OVC,,0.00,0.0,WeatherDisplay:10.37,2013-02-07 02:08:00,
2013-02-06 18:13:00,50.6,45.3,30.12,West,267,9.8,15.0,82,0.00,OVC,,0.00,0.0,WeatherDisplay:10.37,2013-02-07 02:13:00,
2013-02-06 18:18:00,50.6,45.0,30.13,SW,235,7.4,13.8,81,0.00,OVC,,0.00,0.0,WeatherDisplay:10.37,2013-02-07 02:18:00,
2013-02-06 18:23:00,50.7,45.1,30.13,WNW,287,5.9,13.8,81,0.00,OVC,,0.00,0.0,WeatherDisplay:10.37,2013-02-07 02:23:00,
2013-02-06 18:28:00,50.7,45.4,30.13,WNW,288,5.5,10.4,82,0.00,OVC,,0.00,0.0,WeatherDisplay:10.37,2013-02-07 02:28:00,
2013-02-06 18:33:00,50.6,45.3,30.13,WNW,287,7.3,11.5,82,0.00,OVC,,0.00,0.0,WeatherDisplay:10.37,2013-02-07 02:33:00,
2013-02-06 18:38:00,50.5,44.9,30.14,WNW,292,3.9,5.8,81,0.00,CLR,,0.00,0.0,WeatherDisplay:10.37,2013-02-07 02:38:00,
2013-02-06 18:43:00,50.5,45.2,30.14,WNW,283,6.3,11.5,82,0.00,CLR,,0.00,0.0,WeatherDisplay:10.37,2013-02-07 02:43:00,
2013-02-06 18:48:00,50.4,45.4,30.14,WSW,244,7.4,11.5,83,0.00,CLR,,0.00,0.0,WeatherDisplay:10.37,2013-02-07 02:48:00,
2013-02-06 18:53:00,50.4,45.4,30.14,West,263,4.6,6.9,83,0.00,CLR,,0.00,0.0,WeatherDisplay:10.37,2013-02-07 02:53:00,
2013-02-06 18:58:00,50.4,45.7,30.14,North,350,1.5,4.6,84,0.00,CLR,,0.00,0.0,WeatherDisplay:10.37,2013-02-07 02:58:00,
2013-02-06 19:03:00,50.3,46.0,30.14,NW,310,0.0,3.0,85,0.00,CLR,,0.00,0.0,WeatherDisplay:10.37,2013-02-07 03:03:00,
2013-02-06 19:08:00,50.2,45.9,30.14,WSW,256,2.7,5.8,85,0.00,CLR,,0.00,0.0,WeatherDisplay:10.37,2013-02-07 03:08:00,
2013-02-06 19:13:00,50.1,45.8,30.14,West,262,0.5,4.6,85,0.00,CLR,,0.00,0.0,WeatherDisplay:10.37,2013-02-07 03:13:00,
2013-02-06 19:18:00,50.0,46.0,30.14,West,279,7.4,11.5,86,0.00,CLR,,0.00,0.0,WeatherDisplay:10.37,2013-02-07 03:18:00,
2013-02-06 19:23:00,50.0,46.9,30.14,West,266,4.0,8.1,89,0.00,CLR,,0.00,0.0,WeatherDisplay:10.37,2013-02-07 03:23:00,
2013-02-06 19:28:00,49.9,45.9,30.14,WNW,285,4.2,6.9,86,0.00,CLR,,0.00,0.0,WeatherDisplay:10.37,2013-02-07 03:28:00,
2013-02-06 19:33:00,49.9,45.9,30.14,WSW,243,3.1,7.0,86,0.00,CLR,,0.00,0.0,WeatherDisplay:10.37,2013-02-07 03:33:00,
2013-02-06 19:38:00,49.9,45.9,30.14,West,262,2.8,4.6,86,0.00,CLR,,0.00,0.0,WeatherDisplay:10.37,2013-02-07 03:38:00,
2013-02-06 19:43:00,49.8,45.8,30.14,West,272,2.7,4.6,86,0.00,CLR,,0.00,0.0,WeatherDisplay:10.37,2013-02-07 03:43:00,
2013-02-06 19:48:00,49.8,45.8,30.14,WSW,252,4.7,9.2,86,0.00,CLR,,0.00,0.0,WeatherDisplay:10.37,2013-02-07 03:48:00,
2013-02-06 19:53:00,49.8,45.8,30.14,WNW,282,6.2,11.5,86,0.00,CLR,,0.00,0.0,WeatherDisplay:10.37,2013-02-07 03:53:00,
2013-02-06 19:58:00,49.8,45.8,30.14,West,281,7.9,11.5,86,0.00,CLR,,0.00,0.0,WeatherDisplay:10.37,2013-02-07 03:58:00,
2013-02-06 20:03:00,49.8,45.8,30.14,West,263,1.6,3.5,86,0.00,CLR,,0.00,0.0,WeatherDisplay:10.37,2013-02-07 04:03:00,
2013-02-06 20:08:00,49.8,45.8,30.14,North,10,4.3,15.0,86,0.00,CLR,,0.00,0.0,WeatherDisplay:10.37,2013-02-07 04:08:00,
2013-02-06 20:13:00,49.8,45.8,30.14,West,275,11.0,16.1,86,0.00,CLR,,0.00,0.0,WeatherDisplay:10.37,2013-02-07 04:13:00,
2013-02-06 20:18:00,49.8,45.8,30.14,WNW,283,8.9,13.8,86,0.00,CLR,,0.00,0.0,WeatherDisplay:10.37,2013-02-07 04:18:00,
2013-02-06 20:23:00,49.8,45.5,30.14,WSW,254,5.4,8.1,85,0.00,CLR,,0.00,0.0,WeatherDisplay:10.37,2013-02-07 04:23:00,
2013-02-06 20:28:00,49.8,45.8,30.14,North,10,7.8,11.5,86,0.00,CLR,,0.00,0.0,WeatherDisplay:10.37,2013-02-07 04:28:00,
2013-02-06 20:33:00,49.8,45.8,30.15,West,260,6.7,11.5,86,0.00,CLR,,0.00,0.0,WeatherDisplay:10.37,2013-02-07 04:33:00,
2013-02-06 20:38:00,49.8,45.8,30.15,West,269,8.0,12.7,86,0.00,CLR,,0.00,0.0,WeatherDisplay:10.37,2013-02-07 04:38:00,
2013-02-06 20:43:00,49.9,45.6,30.15,WNW,290,6.1,11.5,85,0.00,CLR,,0.00,0.0,WeatherDisplay:10.37,2013-02-07 04:43:00,
2013-02-06 20:48:00,49.9,45.6,30.15,West,264,11.0,17.3,85,0.00,CLR,,0.00,0.0,WeatherDisplay:10.37,2013-02-07 04:48:00,
2013-02-06 20:53:00,49.9,45.6,30.16,WSW,253,6.4,13.8,85,0.00,CLR,,0.00,0.0,WeatherDisplay:10.37,2013-02-07 04:53:00,
2013-02-06 20:58:00,49.9,45.6,30.16,West,264,8.4,12.0,85,0.00,CLR,,0.00,0.0,WeatherDisplay:10.37,2013-02-07 04:58:00,
2013-02-06 21:00:00,49.9,45.6,30.16,West,266,10.0,13.0,85,0.00,CLR,,0.00,0.0,WeatherDisplay:10.37,2013-02-07 05:00:00,
2013-02-06 21:05:00,49.9,45.6,30.16,West,281,5.9,10.4,85,0.00,CLR,,0.00,0.0,WeatherDisplay:10.37,2013-02-07 05:05:00,
2013-02-06 21:10:00,49.8,45.5,30.15,West,261,6.4,13.0,85,0.00,CLR,,0.00,0.0,WeatherDisplay:10.37,2013-02-07 05:10:00,
2013-02-06 21:15:00,49.8,45.8,30.15,West,274,6.3,10.4,86,0.00,CLR,,0.00,0.0,WeatherDisplay:10.37,2013-02-07 05:15:00,
2013-02-06 21:20:00,49.8,45.8,30.15,West,277,8.6,11.5,86,0.00,CLR,,0.00,0.0,WeatherDisplay:10.37,2013-02-07 05:20:00,
2013-02-06 21:25:00,49.8,45.8,30.15,WNW,286,7.1,10.4,86,0.00,CLR,,0.00,0.0,WeatherDisplay:10.37,2013-02-07 05:25:00,
2013-02-06 21:30:00,49.7,45.7,30.15,West,267,6.2,11.5,86,0.00,CLR,,0.00,0.0,WeatherDisplay:10.37,2013-02-07 05:30:00,
2013-02-06 21:35:00,49.7,45.4,30.15,WSW,250,6.5,11.5,85,0.00,CLR,,0.00,0.0,WeatherDisplay:10.37,2013-02-07 05:35:00,
2013-02-06 21:40:00,49.8,45.8,30.15,WNW,283,4.4,11.5,86,0.00,CLR,,0.00,0.0,WeatherDisplay:10.37,2013-02-07 05:40:00,
2013-02-06 21:45:00,49.8,45.5,30.15,West,279,3.6,9.0,85,0.00,CLR,,0.00,0.0,WeatherDisplay:10.37,2013-02-07 05:45:00,
2013-02-06 21:50:00,49.7,45.4,30.15,West,275,2.8,5.8,85,0.00,CLR,,0.00,0.0,WeatherDisplay:10.37,2013-02-07 05:50:00,
2013-02-06 21:55:00,49.7,45.4,30.15,West,273,0.9,4.0,85,0.00,CLR,,0.00,0.0,WeatherDisplay:10.37,2013-02-07 05:55:00,
2013-02-06 22:00:00,49.7,45.4,30.15,WSW,237,4.6,6.9,85,0.00,CLR,,0.00,0.0,WeatherDisplay:10.37,2013-02-07 06:00:00,
2013-02-06 22:05:00,49.7,45.7,30.15,WSW,256,2.5,4.6,86,0.00,CLR,,0.00,0.0,WeatherDisplay:10.37,2013-02-07 06:05:00,
2013-02-06 22:10:00,49.6,45.6,30.15,West,273,3.0,5.8,86,0.00,CLR,,0.00,0.0,WeatherDisplay:10.37,2013-02-07 06:10:00,
2013-02-06 22:15:00,49.5,45.5,30.15,West,264,2.8,5.8,86,0.00,CLR,,0.00,0.0,WeatherDisplay:10.37,2013-02-07 06:15:00,
2013-02-06 22:20:00,49.4,45.4,30.16,West,260,1.3,3.5,86,0.00,CLR,,0.00,0.0,WeatherDisplay:10.37,2013-02-07 06:20:00,
2013-02-06 22:25:00,49.4,45.7,30.16,West,260,0.3,3.0,87,0.00,CLR,,0.00,0.0,WeatherDisplay:10.37,2013-02-07 06:25:00,
2013-02-06 22:30:00,49.3,45.6,30.15,WSW,242,1.4,6.9,87,0.00,CLR,,0.00,0.0,WeatherDisplay:10.37,2013-02-07 06:30:00,
2013-02-06 22:35:00,49.2,45.5,30.15,West,260,3.9,5.8,87,0.00,CLR,,0.00,0.0,WeatherDisplay:10.37,2013-02-07 06:35:00,
2013-02-06 22:40:00,49.2,45.5,30.16,West,265,2.1,5.8,87,0.00,CLR,,0.00,0.0,WeatherDisplay:10.37,2013-02-07 06:40:00,
2013-02-06 22:45:00,49.1,45.4,30.16,West,270,2.8,4.6,87,0.00,CLR,,0.00,0.0,WeatherDisplay:10.37,2013-02-07 06:45:00,
2013-02-06 22:51:00,49.1,45.7,30.16,West,267,2.4,4.6,88,0.00,CLR,,0.00,0.0,WeatherDisplay:10.37,2013-02-07 06:51:00,
2013-02-06 22:56:00,49.1,45.7,30.16,West,271,2.8,5.0,88,0.00,CLR,,0.00,0.0,WeatherDisplay:10.37,2013-02-07 06:56:00,
2013-02-06 23:01:00,49.1,45.7,30.16,West,269,2.3,3.0,88,0.00,CLR,,0.00,0.0,WeatherDisplay:10.37,2013-02-07 07:01:00,
2013-02-06 23:06:00,49.0,45.6,30.16,WNW,294,3.5,5.0,88,0.00,CLR,,0.00,0.0,WeatherDisplay:10.37,2013-02-07 07:06:00,
2013-02-06 23:11:00,49.1,45.7,30.16,WNW,291,1.4,3.5,88,0.00,CLR,,0.00,0.0,WeatherDisplay:10.37,2013-02-07 07:11:00,
2013-02-06 23:16:00,49.1,45.7,30.16,West,275,0.9,2.3,88,0.00,CLR,,0.00,0.0,WeatherDisplay:10.37,2013-02-07 07:16:00,
2013-02-06 23:21:00,49.0,45.6,30.16,West,275,0.0,0.0,88,0.00,CLR,,0.00,0.0,WeatherDisplay:10.37,2013-02-07 07:21:00,
2013-02-06 23:26:00,48.9,45.5,30.16,West,274,0.0,0.0,88,0.00,CLR,,0.00,0.0,WeatherDisplay:10.37,2013-02-07 07:26:00,
2013-02-06 23:31:00,48.8,45.4,30.16,West,275,1.2,3.5,88,0.00,CLR,,0.00,0.0,WeatherDisplay:10.37,2013-02-07 07:31:00,
2013-02-06 23:36:00,48.7,45.3,30.16,West,271,1.6,3.5,88,0.00,CLR,,0.00,0.0,WeatherDisplay:10.37,2013-02-07 07:36:00,
2013-02-06 23:41:00,48.7,45.6,30.16,West,271,2.3,3.5,89,0.00,CLR,,0.00,0.0,WeatherDisplay:10.37,2013-02-07 07:41:00,
2013-02-06 23:46:00,48.6,45.5,30.16,West,271,2.2,3.5,89,0.00,CLR,,0.00,0.0,WeatherDisplay:10.37,2013-02-07 07:46:00,
2013-02-06 23:51:00,48.6,45.5,30.16,West,271,1.3,3.5,89,0.00,CLR,,0.00,0.0,WeatherDisplay:10.37,2013-02-07 07:51:00,
2013-02-06 23:56:00,48.5,45.4,30.16,West,264,2.7,4.6,89,0.00,CLR,,0.00,0.0,WeatherDisplay:10.37,2013-02-07 07:56:00,